Time;durP1;ratioP1;P1;durP2;ratioP2;P2;SDS_P1;SDS_P2;PMS_P1;PMS_P2;Temp;Humidity;BMP_temperature;BMP_pressure;BME280_temperature;BME280_humidity;BME280_pressure;Samples;Min_cycle;Max_cycle;Signal;HPM_P1;HPM_P2
2022/01/17 00:01:37;;;;;;;;;;;20.00;36.70;;;;;;5093407;28;19938;-64
2022/01/17 00:04:03;;;;;;;;;;;20.00;36.70;;;;;;5093474;28;19912;-65
2022/01/17 00:06:28;;;;;;;;;;;20.00;36.80;;;;;;5093223;28;19915;-64
2022/01/17 00:08:54;;;;;;;;;;;20.00;36.80;;;;;;5093477;28;19914;-63
2022/01/17 00:11:19;;;;;;;;;;;20.00;36.80;;;;;;5093211;28;19955;-63
2022/01/17 00:13:46;;;;;;;;;;;20.00;36.80;;;;;;5093384;28;19908;-64
2022/01/17 00:16:51;;;;;;;;;;;20.00;36.80;;;;;;5093207;28;20350;-62
2022/01/17 00:19:47;;;;;;;;;;;19.90;36.80;;;;;;5089960;28;19919;-64
2022/01/17 00:21:52;;;;;;;;;;;20.00;36.80;;;;;;5084615;28;20383;-65
2022/01/17 00:24:18;;;;;;;;;;;19.90;36.90;;;;;;5093129;28;19908;-64
2022/01/17 00:26:46;;;;;;;;;;;19.90;36.90;;;;;;5093228;28;19954;-64
2022/01/17 00:29:11;;;;;;;;;;;19.90;36.90;;;;;;5093388;28;19931;-62
2022/01/17 00:31:37;;;;;;;;;;;19.90;36.90;;;;;;5093044;28;20359;-61
2022/01/17 00:34:02;;;;;;;;;;;19.90;36.90;;;;;;5093038;28;20292;-61
2022/01/17 00:36:28;;;;;;;;;;;19.90;37.00;;;;;;5093014;28;20309;-64
2022/01/17 00:38:53;;;;;;;;;;;19.90;36.90;;;;;;5092971;28;20241;-62
2022/01/17 00:41:18;;;;;;;;;;;19.90;37.00;;;;;;5092897;28;20376;-64
2022/01/17 00:43:44;;;;;;;;;;;19.90;36.90;;;;;;5092936;28;20388;-62
2022/01/17 00:46:09;;;;;;;;;;;19.90;36.90;;;;;;5093201;28;19908;-64
2022/01/17 00:48:35;;;;;;;;;;;19.90;36.90;;;;;;5092860;28;19908;-64
2022/01/17 00:51:00;;;;;;;;;;;19.90;37.00;;;;;;5093129;28;19908;-64
2022/01/17 00:53:26;;;;;;;;;;;19.80;36.90;;;;;;5094265;28;19908;-64
2022/01/17 00:55:51;;;;;;;;;;;19.90;36.90;;;;;;5096694;28;19908;-64
2022/01/17 00:58:17;;;;;;;;;;;19.80;37.00;;;;;;5096631;28;19983;-64
2022/01/17 01:00:42;;;;;;;;;;;19.80;37.00;;;;;;5096175;28;19924;-64
2022/01/17 01:03:08;;;;;;;;;;;19.80;37.00;;;;;;5096209;28;20010;-64
2022/01/17 01:05:34;;;;;;;;;;;19.80;37.00;;;;;;5096307;28;20363;-64
2022/01/17 01:07:59;;;;;;;;;;;19.80;37.00;;;;;;5096449;28;19998;-63
2022/01/17 01:10:25;;;;;;;;;;;19.80;37.00;;;;;;5096435;28;19908;-63
2022/01/17 01:12:51;;;;;;;;;;;19.80;37.00;;;;;;5077932;28;20367;-64
2022/01/17 01:15:23;;;;;;;;;;;19.70;37.00;;;;;;5095988;28;20260;-64
2022/01/17 01:17:54;;;;;;;;;;;19.70;37.00;;;;;;5096037;28;19908;-64
2022/01/17 01:28:33;;;;;;;;;;;19.70;37.00;;;;;;5095932;28;19920;-63
2022/01/17 01:31:01;;;;;;;;;;;19.80;37.10;;;;;;5095854;28;19912;-64
2022/01/17 01:33:32;;;;;;;;;;;19.70;37.10;;;;;;5095828;28;19962;-63
2022/01/17 01:36:05;;;;;;;;;;;19.70;37.00;;;;;;5095658;28;20355;-64
2022/01/17 01:38:31;;;;;;;;;;;19.70;37.10;;;;;;5095655;28;19908;-64
2022/01/17 01:40:57;;;;;;;;;;;19.70;37.10;;;;;;5095520;28;19915;-64
2022/01/17 01:43:23;;;;;;;;;;;19.70;37.10;;;;;;5095543;28;20104;-64
2022/01/17 01:45:49;;;;;;;;;;;19.70;37.10;;;;;;5095471;28;20360;-62
2022/01/17 01:48:18;;;;;;;;;;;19.70;37.10;;;;;;5095443;28;19908;-63
2022/01/17 01:50:44;;;;;;;;;;;19.70;37.10;;;;;;5095654;28;19992;-64
2022/01/17 01:53:09;;;;;;;;;;;19.70;37.10;;;;;;5095308;28;20332;-63
2022/01/17 01:55:34;;;;;;;;;;;19.70;37.10;;;;;;5095535;28;20398;-64
2022/01/17 01:58:00;;;;;;;;;;;19.70;37.10;;;;;;5077226;28;20352;-63
2022/01/17 02:00:25;;;;;;;;;;;19.70;37.10;;;;;;5094978;28;19943;-64
2022/01/17 02:02:51;;;;;;;;;;;19.70;37.10;;;;;;5095130;28;19917;-64
2022/01/17 02:05:16;;;;;;;;;;;19.70;37.20;;;;;;5094290;28;20290;-64
2022/01/17 02:07:43;;;;;;;;;;;19.60;37.10;;;;;;5095145;28;20002;-64
2022/01/17 02:10:08;;;;;;;;;;;19.70;37.20;;;;;;5095364;28;20377;-65
2022/01/17 02:12:34;;;;;;;;;;;19.60;37.20;;;;;;5095076;28;19948;-63
2022/01/17 02:15:00;;;;;;;;;;;19.60;37.20;;;;;;5076974;28;19912;-63
2022/01/17 02:17:26;;;;;;;;;;;19.60;37.20;;;;;;5094898;28;19909;-64
2022/01/17 02:19:53;;;;;;;;;;;19.60;37.20;;;;;;5094854;28;19908;-63
2022/01/17 02:22:18;;;;;;;;;;;19.60;37.20;;;;;;5094623;28;19964;-63
2022/01/17 02:24:44;;;;;;;;;;;19.60;37.10;;;;;;5094733;28;19946;-64
2022/01/17 02:27:09;;;;;;;;;;;19.60;37.20;;;;;;5094946;28;19947;-63
2022/01/17 02:29:35;;;;;;;;;;;19.60;37.20;;;;;;5094670;28;19947;-63
2022/01/17 02:32:00;;;;;;;;;;;19.60;37.20;;;;;;5094585;28;19915;-64
2022/01/17 02:34:26;;;;;;;;;;;19.60;37.20;;;;;;5094566;28;19908;-63
2022/01/17 02:36:51;;;;;;;;;;;19.60;37.20;;;;;;5094715;28;19912;-63
2022/01/17 02:39:17;;;;;;;;;;;19.60;37.20;;;;;;5076223;28;19965;-63
2022/01/17 02:41:45;;;;;;;;;;;19.50;37.20;;;;;;5094642;28;19912;-63
2022/01/17 02:44:11;;;;;;;;;;;19.60;37.20;;;;;;5094396;28;20021;-63
2022/01/17 02:46:37;;;;;;;;;;;19.60;37.20;;;;;;5094390;28;19985;-63
2022/01/17 02:49:03;;;;;;;;;;;19.60;37.20;;;;;;5094301;28;19999;-64
2022/01/17 02:51:29;;;;;;;;;;;19.50;37.30;;;;;;5094103;28;20449;-63
2022/01/17 02:53:55;;;;;;;;;;;19.50;37.30;;;;;;5094521;28;20016;-63
2022/01/17 02:56:21;;;;;;;;;;;19.50;37.30;;;;;;5094150;28;19951;-63
2022/01/17 02:58:46;;;;;;;;;;;19.50;37.30;;;;;;5076074;28;20006;-64
2022/01/17 03:01:14;;;;;;;;;;;19.50;37.30;;;;;;5093904;28;19926;-62
2022/01/17 03:03:42;;;;;;;;;;;19.50;37.30;;;;;;5093241;28;22251;-62
2022/01/17 03:06:07;;;;;;;;;;;19.50;37.30;;;;;;5093942;28;19908;-64
2022/01/17 03:08:34;;;;;;;;;;;19.50;37.30;;;;;;5093951;28;19912;-63
2022/01/17 03:11:00;;;;;;;;;;;19.50;37.30;;;;;;5093948;28;20286;-63
2022/01/17 03:13:32;;;;;;;;;;;19.50;37.30;;;;;;5093914;28;19908;-65
2022/01/17 03:15:59;;;;;;;;;;;19.50;37.30;;;;;;5093825;28;19946;-64
2022/01/17 03:18:26;;;;;;;;;;;19.50;37.40;;;;;;5075661;28;19908;-63
2022/01/17 03:20:52;;;;;;;;;;;19.50;37.30;;;;;;5094022;28;19976;-64
2022/01/17 03:23:17;;;;;;;;;;;19.50;37.40;;;;;;5093622;28;20455;-64
2022/01/17 03:25:43;;;;;;;;;;;19.50;37.40;;;;;;5093837;28;19912;-64
2022/01/17 03:28:09;;;;;;;;;;;19.50;37.40;;;;;;5093704;28;19908;-62
2022/01/17 03:30:34;;;;;;;;;;;19.50;37.40;;;;;;5093597;28;20002;-64
2022/01/17 03:33:00;;;;;;;;;;;19.50;37.30;;;;;;5093567;28;19934;-63
2022/01/17 03:35:26;;;;;;;;;;;19.50;37.40;;;;;;5093619;28;19908;-63
2022/01/17 03:37:52;;;;;;;;;;;19.50;37.40;;;;;;5093388;28;19918;-63
2022/01/17 03:40:17;;;;;;;;;;;19.50;37.40;;;;;;5093521;28;19942;-63
2022/01/17 03:42:43;;;;;;;;;;;19.50;37.40;;;;;;5093543;28;19964;-65
2022/01/17 03:45:09;;;;;;;;;;;19.50;37.40;;;;;;5093706;28;19908;-64
2022/01/17 03:47:35;;;;;;;;;;;19.50;37.40;;;;;;5093375;28;20007;-63
2022/01/17 03:50:01;;;;;;;;;;;19.50;37.50;;;;;;5093691;28;19908;-64
2022/01/17 03:52:26;;;;;;;;;;;19.50;37.40;;;;;;5093451;28;20076;-63
2022/01/17 03:54:51;;;;;;;;;;;19.40;37.40;;;;;;5093367;28;20021;-63
2022/01/17 03:57:17;;;;;;;;;;;19.50;37.40;;;;;;5093405;28;19931;-64
2022/01/17 03:59:43;;;;;;;;;;;19.50;37.50;;;;;;5075189;28;20310;-64
2022/01/17 04:02:09;;;;;;;;;;;19.50;37.40;;;;;;5093564;28;19960;-63
2022/01/17 04:04:34;;;;;;;;;;;19.50;37.50;;;;;;5093377;28;20356;-63
2022/01/17 04:07:00;;;;;;;;;;;19.50;37.50;;;;;;5093480;28;19908;-61
2022/01/17 04:09:25;;;;;;;;;;;19.40;37.50;;;;;;5093275;28;19908;-64
2022/01/17 04:11:50;;;;;;;;;;;19.40;37.50;;;;;;5093347;28;19930;-64
2022/01/17 04:14:17;;;;;;;;;;;19.40;37.50;;;;;;5093272;28;19909;-64
2022/01/17 04:16:43;;;;;;;;;;;19.50;37.50;;;;;;5093176;28;19953;-63
2022/01/17 04:19:10;;;;;;;;;;;19.40;37.50;;;;;;5093435;28;19908;-62
2022/01/17 04:21:36;;;;;;;;;;;19.40;37.50;;;;;;5093043;28;19919;-61
2022/01/17 04:24:02;;;;;;;;;;;19.40;37.50;;;;;;5093147;28;19908;-63
2022/01/17 04:26:27;;;;;;;;;;;19.40;37.50;;;;;;5093150;28;20467;-64
2022/01/17 04:28:53;;;;;;;;;;;19.40;37.50;;;;;;5095294;28;20319;-64
2022/01/17 04:31:18;;;;;;;;;;;19.40;37.50;;;;;;5078740;28;19908;-63
2022/01/17 04:33:44;;;;;;;;;;;19.40;37.60;;;;;;5096856;28;20053;-63
2022/01/17 04:36:09;;;;;;;;;;;19.40;37.60;;;;;;5096825;28;19908;-63
2022/01/17 04:38:35;;;;;;;;;;;19.40;37.60;;;;;;5097017;28;20359;-62
2022/01/17 04:41:01;;;;;;;;;;;19.40;37.60;;;;;;5078517;28;19908;-64
2022/01/17 04:45:07;;;;;;;;;;;19.40;37.60;;;;;;5096706;28;20030;-65
2022/01/17 04:46:19;;;;;;;;;;;19.40;37.60;;;;;;5093387;28;19915;-64
2022/01/17 04:48:44;;;;;;;;;;;19.40;37.50;;;;;;5096645;28;19908;-63
2022/01/17 04:51:10;;;;;;;;;;;19.30;37.50;;;;;;5096682;28;19908;-62
2022/01/17 04:53:35;;;;;;;;;;;19.30;37.50;;;;;;5096639;28;19915;-64
2022/01/17 04:56:01;;;;;;;;;;;19.30;37.60;;;;;;5096440;28;19908;-63
2022/01/17 04:58:26;;;;;;;;;;;19.30;37.60;;;;;;5078241;28;19953;-63
2022/01/17 05:00:52;;;;;;;;;;;19.40;37.60;;;;;;5096211;28;19920;-63
2022/01/17 05:03:17;;;;;;;;;;;19.30;37.60;;;;;;5096196;28;20364;-63
2022/01/17 05:05:43;;;;;;;;;;;19.30;37.60;;;;;;5096236;28;20261;-63
2022/01/17 05:08:08;;;;;;;;;;;19.30;37.60;;;;;;5096506;28;19936;-63
2022/01/17 05:10:34;;;;;;;;;;;19.30;37.60;;;;;;5095970;28;20264;-64
2022/01/17 05:12:59;;;;;;;;;;;19.30;37.60;;;;;;5096100;28;19915;-61
2022/01/17 05:15:31;;;;;;;;;;;19.30;37.60;;;;;;5096009;28;20042;-61
2022/01/17 05:20:23;;;;;;;;;;;19.40;37.60;;;;;;5096207;28;19915;-61
2022/01/17 05:22:48;;;;;;;;;;;19.40;37.50;;;;;;5096177;28;19916;-64
2022/01/17 05:25:14;;;;;;;;;;;19.40;37.50;;;;;;5095934;28;19999;-62
2022/01/17 05:27:39;;;;;;;;;;;19.40;37.40;;;;;;5095774;28;20359;-62
2022/01/17 05:30:06;;;;;;;;;;;19.50;37.40;;;;;;5096050;28;19908;-61
2022/01/17 05:32:31;;;;;;;;;;;19.50;37.40;;;;;;5095755;28;19995;-63
2022/01/17 05:34:57;;;;;;;;;;;19.50;37.40;;;;;;5095684;28;20320;-63
2022/01/17 05:37:22;;;;;;;;;;;19.50;37.30;;;;;;5095721;28;20423;-64
2022/01/17 05:39:48;;;;;;;;;;;19.50;37.30;;;;;;5094368;28;19908;-64
2022/01/17 05:42:17;;;;;;;;;;;19.50;37.30;;;;;;5095493;28;19920;-63
2022/01/17 05:44:43;;;;;;;;;;;19.50;37.20;;;;;;5095501;28;19912;-64
2022/01/17 05:47:09;;;;;;;;;;;19.60;37.20;;;;;;5095437;28;19908;-63
2022/01/17 05:49:34;;;;;;;;;;;19.60;37.20;;;;;;5095471;28;19949;-64
2022/01/17 05:52:00;;;;;;;;;;;19.60;37.20;;;;;;5095386;28;19915;-64
2022/01/17 05:54:25;;;;;;;;;;;19.60;37.20;;;;;;5095378;28;20291;-65
2022/01/17 05:56:51;;;;;;;;;;;19.60;37.20;;;;;;5095536;28;19946;-65
2022/01/17 05:59:16;;;;;;;;;;;19.60;37.20;;;;;;5095111;28;20008;-63
2022/01/17 06:01:44;;;;;;;;;;;19.70;37.20;;;;;;5095154;28;19912;-63
2022/01/17 06:04:10;;;;;;;;;;;19.60;37.20;;;;;;5095094;28;20000;-63
2022/01/17 06:06:35;;;;;;;;;;;19.70;37.20;;;;;;5095182;28;19947;-64
2022/01/17 06:09:00;;;;;;;;;;;19.70;37.10;;;;;;5094993;28;20022;-63
2022/01/17 06:11:26;;;;;;;;;;;19.70;37.10;;;;;;5094950;28;19915;-63
2022/01/17 06:13:51;;;;;;;;;;;19.70;37.10;;;;;;5095069;28;19908;-64
2022/01/17 06:16:17;;;;;;;;;;;19.70;37.10;;;;;;5094832;28;20290;-63
2022/01/17 06:18:43;;;;;;;;;;;19.70;37.10;;;;;;5094853;28;19908;-64
2022/01/17 06:21:08;;;;;;;;;;;19.80;37.10;;;;;;5094546;28;19908;-65
2022/01/17 06:23:34;;;;;;;;;;;19.80;37.10;;;;;;5094999;28;19916;-64
2022/01/17 06:25:59;;;;;;;;;;;19.80;37.10;;;;;;5094710;28;20011;-63
2022/01/17 06:28:25;;;;;;;;;;;19.80;37.10;;;;;;5094872;28;19953;-64
2022/01/17 06:30:50;;;;;;;;;;;19.80;37.10;;;;;;5094845;28;19908;-63
2022/01/17 06:33:16;;;;;;;;;;;19.80;37.10;;;;;;5094611;28;19908;-64
2022/01/17 06:35:41;;;;;;;;;;;19.80;37.10;;;;;;5094509;28;19912;-64
2022/01/17 06:38:07;;;;;;;;;;;19.90;37.10;;;;;;5094465;28;19908;-64
2022/01/17 06:40:32;;;;;;;;;;;19.80;37.10;;;;;;5094455;28;19916;-64
2022/01/17 06:42:58;;;;;;;;;;;19.90;37.10;;;;;;5094479;28;20395;-64
2022/01/17 06:45:23;;;;;;;;;;;19.90;37.10;;;;;;5094514;28;20290;-63
2022/01/17 06:47:49;;;;;;;;;;;19.90;37.10;;;;;;5094443;28;20375;-63
2022/01/17 06:50:14;;;;;;;;;;;19.90;37.10;;;;;;5094134;28;20355;-64
2022/01/17 06:52:40;;;;;;;;;;;19.90;37.00;;;;;;5094037;28;19991;-64
2022/01/17 06:55:06;;;;;;;;;;;20.00;37.10;;;;;;5094389;28;19912;-63
2022/01/17 06:57:31;;;;;;;;;;;19.90;37.00;;;;;;5094160;28;20362;-63
2022/01/17 06:59:57;;;;;;;;;;;20.00;37.00;;;;;;5094062;28;20019;-63
2022/01/17 07:02:22;;;;;;;;;;;20.00;37.00;;;;;;5093975;28;20276;-65
2022/01/17 07:04:48;;;;;;;;;;;20.00;37.10;;;;;;5094072;28;20402;-64
2022/01/17 07:07:13;;;;;;;;;;;20.00;37.10;;;;;;5093940;28;19912;-64
2022/01/17 07:09:39;;;;;;;;;;;20.00;37.00;;;;;;5093866;28;19908;-64
2022/01/17 07:12:04;;;;;;;;;;;20.00;37.10;;;;;;5093832;28;20359;-63
2022/01/17 07:14:30;;;;;;;;;;;20.00;37.00;;;;;;5078611;28;19939;-63
2022/01/17 07:16:56;;;;;;;;;;;19.60;37.10;;;;;;5076440;28;20372;-63
2022/01/17 07:19:22;;;;;;;;;;;18.90;38.00;;;;;;5093020;28;19908;-64
2022/01/17 07:21:48;;;;;;;;;;;18.50;39.00;;;;;;5084143;28;19923;-64
2022/01/17 07:24:14;;;;;;;;;;;18.60;39.10;;;;;;5072773;28;19916;-63
2022/01/17 07:26:40;;;;;;;;;;;19.10;38.30;;;;;;5072394;28;19997;-63
2022/01/17 07:29:05;;;;;;;;;;;19.40;37.80;;;;;;5077071;28;20363;-63
2022/01/17 07:31:31;;;;;;;;;;;19.60;37.60;;;;;;5093202;28;19947;-64
2022/01/17 07:33:57;;;;;;;;;;;19.70;37.40;;;;;;5074606;28;19909;-64
2022/01/17 07:36:23;;;;;;;;;;;19.80;37.30;;;;;;5088814;28;20438;-63
2022/01/17 07:38:48;;;;;;;;;;;19.90;37.20;;;;;;5077462;28;19966;-63
2022/01/17 07:41:14;;;;;;;;;;;20.00;37.20;;;;;;5083825;28;19970;-63
2022/01/17 07:43:41;;;;;;;;;;;20.00;37.10;;;;;;5090511;28;20007;-62
2022/01/17 07:46:13;;;;;;;;;;;20.00;37.40;;;;;;5081007;28;19995;-63
2022/01/17 07:51:23;;;;;;;;;;;20.00;37.50;;;;;;5085199;28;19920;-63
2022/01/17 07:53:49;;;;;;;;;;;20.00;37.60;;;;;;5072321;28;20425;-63
2022/01/17 07:56:15;;;;;;;;;;;20.00;37.80;;;;;;5088435;28;19912;-64
2022/01/17 07:58:41;;;;;;;;;;;19.90;37.80;;;;;;5073303;28;19916;-64
2022/01/17 08:01:07;;;;;;;;;;;19.90;38.00;;;;;;5086820;28;19980;-63
2022/01/17 08:03:33;;;;;;;;;;;20.00;38.10;;;;;;5082592;28;19955;-63
2022/01/17 08:05:59;;;;;;;;;;;19.90;38.10;;;;;;5083507;28;19966;-63
2022/01/17 08:08:24;;;;;;;;;;;19.90;38.20;;;;;;5087070;28;19927;-63
2022/01/17 08:10:50;;;;;;;;;;;20.00;38.20;;;;;;5088771;28;19920;-64
2022/01/17 08:13:15;;;;;;;;;;;19.90;38.20;;;;;;5074737;28;19912;-64
2022/01/17 08:15:41;;;;;;;;;;;20.00;37.90;;;;;;5089377;28;19974;-64
2022/01/17 08:18:06;;;;;;;;;;;19.90;38.00;;;;;;5093176;28;20360;-63
2022/01/17 08:20:32;;;;;;;;;;;19.90;38.00;;;;;;5092955;28;19959;-63
2022/01/17 08:22:57;;;;;;;;;;;19.90;38.20;;;;;;5088550;28;19924;-63
2022/01/17 08:25:23;;;;;;;;;;;20.00;38.30;;;;;;5094979;28;19937;-63
2022/01/17 08:27:49;;;;;;;;;;;19.90;38.20;;;;;;5077481;28;19908;-63
2022/01/17 08:30:14;;;;;;;;;;;20.00;38.20;;;;;;5081782;28;20360;-63
2022/01/17 08:32:40;;;;;;;;;;;19.90;38.00;;;;;;5092331;28;19911;-64
2022/01/17 08:35:06;;;;;;;;;;;19.90;38.30;;;;;;5086148;28;20010;-63
2022/01/17 08:37:32;;;;;;;;;;;19.90;38.40;;;;;;5075895;28;19924;-64
2022/01/17 08:40:01;;;;;;;;;;;20.00;38.30;;;;;;5093050;28;19913;-62
2022/01/17 08:42:26;;;;;;;;;;;20.00;38.20;;;;;;5094546;28;19924;-63
2022/01/17 08:44:54;;;;;;;;;;;20.00;38.20;;;;;;5083316;28;19912;-64
2022/01/17 08:47:20;;;;;;;;;;;20.00;38.20;;;;;;5094493;28;19916;-62
2022/01/17 08:49:47;;;;;;;;;;;19.90;38.50;;;;;;5089791;28;20399;-63
2022/01/17 08:52:15;;;;;;;;;;;20.00;38.50;;;;;;5093906;28;19912;-63
2022/01/17 08:54:40;;;;;;;;;;;20.00;38.50;;;;;;5076159;28;20362;-65
2022/01/17 08:57:06;;;;;;;;;;;20.00;38.60;;;;;;5094042;28;19912;-63
2022/01/17 08:59:31;;;;;;;;;;;20.00;38.60;;;;;;5077468;28;19928;-63
2022/01/17 09:01:57;;;;;;;;;;;20.00;38.20;;;;;;5080534;28;19977;-62
2022/01/17 09:04:23;;;;;;;;;;;20.00;38.20;;;;;;5080605;28;19916;-62
2022/01/17 09:06:48;;;;;;;;;;;20.00;38.10;;;;;;5094424;28;19924;-62
2022/01/17 09:09:14;;;;;;;;;;;20.00;38.00;;;;;;5093290;28;20055;-62
2022/01/17 09:11:39;;;;;;;;;;;20.10;38.10;;;;;;5083524;28;20334;-62
2022/01/17 09:14:06;;;;;;;;;;;20.10;38.20;;;;;;5073732;28;19919;-63
2022/01/17 09:16:31;;;;;;;;;;;20.10;38.10;;;;;;5084984;28;20011;-63
2022/01/17 09:18:57;;;;;;;;;;;20.10;38.10;;;;;;5087149;28;20047;-63
2022/01/17 09:21:22;;;;;;;;;;;20.10;38.10;;;;;;5087547;28;20140;-63
2022/01/17 09:23:49;;;;;;;;;;;20.10;38.10;;;;;;5093014;28;19920;-63
2022/01/17 09:26:15;;;;;;;;;;;20.20;38.00;;;;;;5092827;28;19956;-63
2022/01/17 09:28:41;;;;;;;;;;;20.10;38.00;;;;;;5090022;28;20429;-63
2022/01/17 09:31:06;;;;;;;;;;;20.10;38.00;;;;;;5093694;28;19992;-63
2022/01/17 09:33:34;;;;;;;;;;;20.10;38.10;;;;;;5084141;28;19915;-63
2022/01/17 09:35:59;;;;;;;;;;;20.20;38.00;;;;;;5081765;28;19916;-63
2022/01/17 09:38:25;;;;;;;;;;;20.10;38.00;;;;;;5074991;28;19999;-63
2022/01/17 09:40:50;;;;;;;;;;;20.20;38.10;;;;;;5092837;28;20463;-64
2022/01/17 09:43:16;;;;;;;;;;;20.20;38.10;;;;;;5092744;28;20306;-62
2022/01/17 09:45:41;;;;;;;;;;;20.20;38.10;;;;;;5092010;28;19923;-63
2022/01/17 09:48:08;;;;;;;;;;;20.20;38.10;;;;;;5093092;28;20260;-63
2022/01/17 09:50:45;;;;;;;;;;;20.20;38.10;;;;;;5092855;28;19969;-62
2022/01/17 09:53:13;;;;;;;;;;;20.20;38.10;;;;;;5092652;28;19916;-62
2022/01/17 09:55:39;;;;;;;;;;;20.20;38.10;;;;;;5082110;28;19919;-63
2022/01/17 09:58:06;;;;;;;;;;;20.20;38.20;;;;;;5076693;28;19912;-63
2022/01/17 10:00:33;;;;;;;;;;;20.20;38.10;;;;;;5083701;28;20392;-63
2022/01/17 10:03:00;;;;;;;;;;;20.20;38.30;;;;;;5073055;28;19916;-61
2022/01/17 10:05:26;;;;;;;;;;;20.10;38.70;;;;;;5072574;28;19909;-62
2022/01/17 10:08:04;;;;;;;;;;;20.10;38.80;;;;;;5073137;28;20421;-63
2022/01/17 10:10:32;;;;;;;;;;;20.10;38.90;;;;;;5074264;28;19981;-63
2022/01/17 10:13:03;;;;;;;;;;;20.10;38.90;;;;;;5083490;28;20287;-61
2022/01/17 10:15:36;;;;;;;;;;;20.10;38.90;;;;;;5076394;28;20372;-61
2022/01/17 10:18:02;;;;;;;;;;;20.10;39.00;;;;;;5092010;28;19968;-61
2022/01/17 10:20:32;;;;;;;;;;;20.10;39.00;;;;;;5068728;28;20383;-62
2022/01/17 10:23:16;;;;;;;;;;;20.10;39.00;;;;;;5073793;28;19928;-61
2022/01/17 10:25:56;;;;;;;;;;;20.10;39.00;;;;;;5077940;28;20866;-61
2022/01/17 10:28:55;;;;;;;;;;;20.00;39.10;;;;;;5073580;28;20356;-62
2022/01/17 10:36:49;;;;;;;;;;;20.10;39.10;;;;;;5091544;28;19923;-62
2022/01/17 10:39:14;;;;;;;;;;;20.00;39.00;;;;;;5089305;28;20019;-62
2022/01/17 10:41:40;;;;;;;;;;;20.00;39.10;;;;;;5088898;28;20421;-62
2022/01/17 10:44:05;;;;;;;;;;;20.00;39.00;;;;;;5077474;28;19913;-62
2022/01/17 10:46:31;;;;;;;;;;;20.10;39.00;;;;;;5083329;28;19975;-62
2022/01/17 10:48:57;;;;;;;;;;;20.10;38.90;;;;;;5090502;28;20312;-63
2022/01/17 10:51:29;;;;;;;;;;;20.10;39.00;;;;;;5083907;28;19912;-62
2022/01/17 10:53:55;;;;;;;;;;;20.10;38.90;;;;;;5078846;28;20418;-62
2022/01/17 10:56:23;;;;;;;;;;;20.10;39.00;;;;;;5081853;28;19969;-62
2022/01/17 10:59:00;;;;;;;;;;;20.00;38.70;;;;;;5079664;28;19920;-62
2022/01/17 11:01:25;;;;;;;;;;;20.10;38.90;;;;;;5085925;28;19920;-62
2022/01/17 11:03:57;;;;;;;;;;;20.10;39.00;;;;;;5083831;28;19920;-61
2022/01/17 11:06:23;;;;;;;;;;;20.10;38.80;;;;;;5082887;28;19920;-62
2022/01/17 11:08:50;;;;;;;;;;;20.10;38.70;;;;;;5056072;28;19917;-62
2022/01/17 11:11:21;;;;;;;;;;;20.10;38.80;;;;;;5070882;28;19961;-62
2022/01/17 11:13:49;;;;;;;;;;;20.10;39.00;;;;;;5090913;28;19908;-62
2022/01/17 11:16:14;;;;;;;;;;;20.10;39.10;;;;;;5090597;28;20052;-62
2022/01/17 11:18:43;;;;;;;;;;;20.10;39.10;;;;;;5090685;28;20002;-62
2022/01/17 11:21:14;;;;;;;;;;;20.10;39.20;;;;;;5088281;28;20237;-62
2022/01/17 11:23:45;;;;;;;;;;;20.10;39.00;;;;;;5074264;28;20222;-63
2022/01/17 11:26:11;;;;;;;;;;;20.10;38.80;;;;;;5085000;28;19963;-63
2022/01/17 11:28:38;;;;;;;;;;;20.10;38.80;;;;;;5074818;28;19989;-63
2022/01/17 11:31:05;;;;;;;;;;;20.10;39.10;;;;;;5080919;28;19912;-63
2022/01/17 11:33:31;;;;;;;;;;;20.10;39.20;;;;;;5090563;28;20479;-61
2022/01/17 11:35:56;;;;;;;;;;;20.10;39.40;;;;;;5091552;28;20382;-61
2022/01/17 11:38:28;;;;;;;;;;;20.10;39.40;;;;;;5091767;28;19912;-62
2022/01/17 11:40:54;;;;;;;;;;;20.10;39.50;;;;;;5092120;28;20463;-62
2022/01/17 11:43:22;;;;;;;;;;;20.10;39.30;;;;;;5087480;28;19951;-61
2022/01/17 11:45:48;;;;;;;;;;;20.10;38.90;;;;;;5075914;28;19916;-64
2022/01/17 11:48:21;;;;;;;;;;;20.20;38.80;;;;;;5090329;28;19922;-64
2022/01/17 11:50:48;;;;;;;;;;;20.10;38.90;;;;;;5090948;28;19958;-63
2022/01/17 11:53:14;;;;;;;;;;;20.10;39.40;;;;;;5091593;28;19946;-64
2022/01/17 11:55:42;;;;;;;;;;;20.20;39.20;;;;;;5090642;28;19916;-64
2022/01/17 11:58:26;;;;;;;;;;;20.20;39.00;;;;;;5091375;28;20357;-64
2022/01/17 12:00:57;;;;;;;;;;;20.20;39.30;;;;;;5080704;28;19927;-64
2022/01/17 12:03:24;;;;;;;;;;;20.10;39.90;;;;;;5088943;28;19920;-62
2022/01/17 12:05:49;;;;;;;;;;;20.10;39.70;;;;;;5068628;28;19920;-65
2022/01/17 12:08:25;;;;;;;;;;;20.10;39.80;;;;;;5091544;28;19915;-63
2022/01/17 12:10:57;;;;;;;;;;;20.10;39.80;;;;;;5081131;28;19922;-63
2022/01/17 12:13:30;;;;;;;;;;;20.10;39.60;;;;;;5077606;28;19919;-63
2022/01/17 12:16:23;;;;;;;;;;;20.10;39.80;;;;;;5078066;28;19912;-62
2022/01/17 12:18:50;;;;;;;;;;;20.10;39.80;;;;;;5086836;28;19912;-64
2022/01/17 12:21:34;;;;;;;;;;;20.10;40.00;;;;;;5083867;28;19912;-63
2022/01/17 12:24:14;;;;;;;;;;;20.10;40.00;;;;;;5086690;28;19923;-65
2022/01/17 12:26:41;;;;;;;;;;;20.10;39.80;;;;;;5072805;28;19919;-66
2022/01/17 12:29:06;;;;;;;;;;;20.10;39.60;;;;;;5073017;28;19912;-65
2022/01/17 12:31:43;;;;;;;;;;;20.20;39.70;;;;;;5090030;28;19912;-67
2022/01/17 12:34:16;;;;;;;;;;;20.10;39.70;;;;;;5081238;28;19912;-66
2022/01/17 12:36:42;;;;;;;;;;;20.20;39.80;;;;;;5090038;28;19919;-65
2022/01/17 12:39:12;;;;;;;;;;;20.10;39.30;;;;;;5076501;28;19916;-66
2022/01/17 12:41:39;;;;;;;;;;;20.10;39.70;;;;;;5078221;28;19913;-66
2022/01/17 12:44:22;;;;;;;;;;;20.10;39.30;;;;;;5091174;28;19945;-67
2022/01/17 12:46:49;;;;;;;;;;;20.20;39.50;;;;;;5081792;28;19912;-67
2022/01/17 12:49:15;;;;;;;;;;;20.20;39.20;;;;;;5072807;28;20615;-66
2022/01/17 12:51:41;;;;;;;;;;;20.20;39.20;;;;;;5086228;28;20057;-66
2022/01/17 12:54:11;;;;;;;;;;;20.20;39.20;;;;;;5088475;28;20006;-65
2022/01/17 12:56:39;;;;;;;;;;;20.20;39.60;;;;;;5094667;28;19912;-66
2022/01/17 12:59:05;;;;;;;;;;;20.20;39.90;;;;;;5071381;28;19951;-64
2022/01/17 13:01:30;;;;;;;;;;;20.20;39.80;;;;;;5090172;28;20017;-65
2022/01/17 13:04:03;;;;;;;;;;;20.10;40.00;;;;;;5078159;28;19920;-66
2022/01/17 13:06:29;;;;;;;;;;;20.10;40.00;;;;;;5094372;28;19919;-65
2022/01/17 13:08:55;;;;;;;;;;;20.10;40.00;;;;;;5088747;28;20372;-64
2022/01/17 13:11:24;;;;;;;;;;;20.10;40.40;;;;;;5082451;28;19999;-65
2022/01/17 13:13:58;;;;;;;;;;;20.10;40.00;;;;;;5079833;28;20439;-65
2022/01/17 13:16:24;;;;;;;;;;;20.20;39.70;;;;;;5089437;28;19912;-65
2022/01/17 13:18:50;;;;;;;;;;;20.20;39.50;;;;;;5059083;28;19995;-66
2022/01/17 13:21:16;;;;;;;;;;;20.20;39.90;;;;;;5086824;28;19912;-65
2022/01/17 13:23:52;;;;;;;;;;;20.10;40.10;;;;;;5093657;28;19923;-67
2022/01/17 13:26:21;;;;;;;;;;;20.10;40.10;;;;;;5093718;28;19918;-67
2022/01/17 13:28:47;;;;;;;;;;;20.10;40.10;;;;;;5092216;28;19961;-64
2022/01/17 13:31:18;;;;;;;;;;;20.10;40.20;;;;;;5081993;28;19916;-66
2022/01/17 13:33:44;;;;;;;;;;;20.10;40.10;;;;;;5073167;28;20327;-65
2022/01/17 13:36:09;;;;;;;;;;;20.20;39.90;;;;;;5068895;28;19969;-65
2022/01/17 13:38:35;;;;;;;;;;;20.20;39.70;;;;;;5066736;28;19913;-67
2022/01/17 13:41:02;;;;;;;;;;;20.20;39.70;;;;;;5080402;28;19912;-67
2022/01/17 13:43:28;;;;;;;;;;;20.20;40.10;;;;;;5088119;28;20398;-67
2022/01/17 13:45:55;;;;;;;;;;;20.20;40.20;;;;;;5079407;28;19954;-65
2022/01/17 13:48:21;;;;;;;;;;;20.20;39.90;;;;;;5094069;28;19908;-65
2022/01/17 13:50:54;;;;;;;;;;;20.20;40.10;;;;;;5083180;28;19948;-66
2022/01/17 13:53:21;;;;;;;;;;;20.20;40.10;;;;;;5093672;28;19954;-65
2022/01/17 13:55:47;;;;;;;;;;;20.20;40.20;;;;;;5088419;28;20015;-64
2022/01/17 13:58:15;;;;;;;;;;;20.20;40.10;;;;;;5093121;28;19964;-66
2022/01/17 14:00:45;;;;;;;;;;;20.20;40.30;;;;;;5091108;28;20006;-65
2022/01/17 14:03:11;;;;;;;;;;;20.20;40.30;;;;;;5092898;28;19924;-66
2022/01/17 14:05:41;;;;;;;;;;;20.20;40.40;;;;;;5092665;28;20641;-65
2022/01/17 14:08:10;;;;;;;;;;;20.20;40.40;;;;;;5093582;28;19908;-65
2022/01/17 14:10:45;;;;;;;;;;;20.20;40.30;;;;;;5092268;28;20013;-65
2022/01/17 14:13:11;;;;;;;;;;;20.20;40.30;;;;;;5093079;28;20003;-65
2022/01/17 14:15:36;;;;;;;;;;;20.20;40.40;;;;;;5092250;28;19954;-65
2022/01/17 14:18:09;;;;;;;;;;;20.20;40.30;;;;;;5092984;28;19920;-66
2022/01/17 14:20:37;;;;;;;;;;;20.20;40.00;;;;;;5085539;28;19919;-67
2022/01/17 14:23:03;;;;;;;;;;;20.20;40.30;;;;;;5092029;28;19950;-65
2022/01/17 14:25:28;;;;;;;;;;;20.20;40.10;;;;;;5092919;28;19920;-65
2022/01/17 14:27:55;;;;;;;;;;;20.20;40.00;;;;;;5092721;28;19916;-64
2022/01/17 14:30:27;;;;;;;;;;;20.20;40.20;;;;;;5092052;28;19908;-66
2022/01/17 14:33:13;;;;;;;;;;;20.20;40.30;;;;;;5082496;28;19912;-66
2022/01/17 14:35:57;;;;;;;;;;;20.20;40.40;;;;;;5092730;28;19912;-66